Time;durP1;ratioP1;P1;durP2;ratioP2;P2;SDS_P1;SDS_P2;PMS_P1;PMS_P2;Temp;Humidity;BMP_temperature;BMP_pressure;BME280_temperature;BME280_humidity;BME280_pressure;Samples;Min_cycle;Max_cycle;Signal;HPM_P1;HPM_P2
2022/05/05 00:01:24;;;;;;;9.20;4.00;;;7.90;99.90;;;;;;5114136;28;20039;-77
2022/05/05 00:03:49;;;;;;;10.30;4.28;;;7.90;99.90;;;;;;5114716;28;20044;-75
2022/05/05 00:06:15;;;;;;;14.20;4.03;;;7.80;99.90;;;;;;5114870;28;20051;-76
2022/05/05 00:08:41;;;;;;;8.30;4.43;;;7.80;99.90;;;;;;5114789;28;20047;-75
2022/05/05 00:16:34;;;;;;;8.75;4.28;;;7.70;99.90;;;;;;5115328;28;20055;-75
2022/05/05 00:19:01;;;;;;;7.10;4.22;;;7.70;99.90;;;;;;5114925;28;20047;-76
2022/05/05 00:21:27;;;;;;;10.52;5.13;;;7.60;99.90;;;;;;5114799;28;20395;-75
2022/05/05 00:23:52;;;;;;;15.07;4.28;;;7.60;99.90;;;;;;5114774;28;20044;-75
2022/05/05 00:26:18;;;;;;;6.75;4.10;;;7.50;99.90;;;;;;5114629;28;20044;-76
2022/05/05 00:28:43;;;;;;;12.02;5.00;;;7.50;99.90;;;;;;5114729;28;20079;-76
2022/05/05 00:31:09;;;;;;;6.90;4.20;;;7.50;99.90;;;;;;5114587;28;20036;-76
2022/05/05 00:33:34;;;;;;;10.40;4.45;;;7.50;99.90;;;;;;5114640;28;20127;-76
2022/05/05 00:36:00;;;;;;;9.63;4.47;;;7.50;99.90;;;;;;5114721;28;20069;-77
2022/05/05 00:38:26;;;;;;;7.10;4.57;;;7.50;99.90;;;;;;5114528;28;20043;-75
2022/05/05 00:40:51;;;;;;;15.65;4.20;;;7.40;99.90;;;;;;5114472;28;20547;-76
2022/05/05 00:43:17;;;;;;;14.30;4.90;;;7.40;99.90;;;;;;5114489;28;20039;-75
2022/05/05 00:45:42;;;;;;;10.68;4.40;;;7.40;99.90;;;;;;5114473;28;20483;-75
2022/05/05 00:48:09;;;;;;;9.35;4.75;;;7.30;99.90;;;;;;5114363;28;20047;-75
2022/05/05 00:50:36;;;;;;;7.72;4.70;;;7.30;99.90;;;;;;5114310;28;20046;-77
2022/05/05 00:53:03;;;;;;;10.57;4.68;;;7.30;99.90;;;;;;5114424;28;20048;-75
2022/05/05 00:55:36;;;;;;;10.25;4.97;;;7.30;99.90;;;;;;5114278;28;20035;-77
2022/05/05 00:58:03;;;;;;;13.93;6.00;;;7.30;99.90;;;;;;5114323;28;20044;-77
2022/05/05 01:00:29;;;;;;;;;;;7.30;99.90;;;;;;5115058;28;20043;-76
2022/05/05 01:02:57;;;;;;;12.55;6.18;;;7.30;99.90;;;;;;5114288;28;19920;-76
2022/05/05 01:05:24;;;;;;;11.02;5.22;;;7.30;99.90;;;;;;5114213;28;20407;-76
2022/05/05 01:07:50;;;;;;;11.55;5.43;;;7.20;99.90;;;;;;5114400;28;20435;-73
2022/05/05 01:10:16;;;;;;;10.85;5.68;;;7.20;99.90;;;;;;5114104;28;20048;-75
2022/05/05 01:12:42;;;;;;;12.67;5.67;;;7.20;99.90;;;;;;5113998;28;20046;-75
2022/05/05 01:15:08;;;;;;;10.52;5.65;;;7.20;99.90;;;;;;5114300;28;20055;-75
2022/05/05 01:17:34;;;;;;;12.75;6.30;;;7.30;99.90;;;;;;5118390;28;20050;-73
2022/05/05 01:20:13;;;;;;;11.75;5.43;;;7.20;99.90;;;;;;5118342;28;20055;-75
2022/05/05 01:22:38;;;;;;;9.57;5.40;;;7.20;99.90;;;;;;5118296;28;20083;-76
2022/05/05 01:30:33;;;;;;;11.63;6.00;;;7.20;99.90;;;;;;5117841;28;20131;-74
2022/05/05 01:32:59;;;;;;;11.77;5.40;;;7.10;99.90;;;;;;5123190;28;20444;-75
2022/05/05 01:35:24;;;;;;;9.15;5.43;;;7.20;99.90;;;;;;5131238;28;20043;-74
2022/05/05 01:37:50;;;;;;;9.93;5.70;;;7.10;99.90;;;;;;5132267;28;20047;-75
2022/05/05 01:40:16;;;;;;;9.38;5.35;;;7.20;99.90;;;;;;5132418;28;20070;-75
2022/05/05 01:42:42;;;;;;;14.20;6.45;;;7.10;99.90;;;;;;5131202;28;20044;-75
2022/05/05 01:45:08;;;;;;;13.03;6.23;;;7.10;99.90;;;;;;5130883;28;20044;-75
2022/05/05 01:47:34;;;;;;;11.43;5.70;;;7.10;99.90;;;;;;5129727;28;20331;-74
2022/05/05 01:50:00;;;;;;;12.63;5.60;;;7.10;99.90;;;;;;5127973;28;20044;-75
2022/05/05 01:52:27;;;;;;;13.43;5.57;;;7.00;99.90;;;;;;5129106;28;20055;-76
2022/05/05 01:54:53;;;;;;;;;;;7.00;99.90;;;;;;5128363;28;20035;-72
2022/05/05 01:57:18;;;;;;;10.82;5.10;;;7.00;99.90;;;;;;5128633;28;19927;-72
2022/05/05 01:59:44;;;;;;;9.27;5.47;;;7.00;99.90;;;;;;5124594;28;20048;-76
2022/05/05 02:02:10;;;;;;;13.23;5.57;;;7.00;99.90;;;;;;5118254;28;20040;-74
2022/05/05 02:04:35;;;;;;;11.93;5.63;;;6.90;99.90;;;;;;5119498;28;20112;-77
2022/05/05 02:07:01;;;;;;;14.70;5.40;;;6.90;99.90;;;;;;5118330;28;20086;-76
2022/05/05 02:09:26;;;;;;;9.23;5.88;;;6.90;99.90;;;;;;5117712;28;20044;-76
2022/05/05 02:11:53;;;;;;;11.10;5.72;;;6.80;99.90;;;;;;5117903;28;20039;-75
2022/05/05 02:14:23;;;;;;;14.55;7.55;;;6.80;99.90;;;;;;5117323;28;20102;-76
2022/05/05 02:16:49;;;;;;;11.20;5.85;;;6.70;99.90;;;;;;5117442;28;20441;-75
2022/05/05 02:19:15;;;;;;;8.13;5.43;;;6.70;99.90;;;;;;5117028;28;20046;-77
2022/05/05 02:21:40;;;;;;;12.77;5.45;;;6.70;99.90;;;;;;5117337;28;20282;-76
2022/05/05 02:24:06;;;;;;;14.05;5.85;;;6.60;99.90;;;;;;5116321;28;20086;-76
2022/05/05 02:26:32;;;;;;;14.63;6.20;;;6.60;99.90;;;;;;5117323;28;20391;-76
2022/05/05 02:28:57;;;;;;;9.75;5.93;;;6.60;99.90;;;;;;5116586;28;20039;-76
2022/05/05 02:31:23;;;;;;;14.75;6.45;;;6.60;99.90;;;;;;5117099;28;20043;-77
2022/05/05 02:33:48;;;;;;;11.15;6.13;;;6.60;99.90;;;;;;5117071;28;20048;-76
2022/05/05 02:38:58;;;;;;;10.80;6.25;;;6.50;99.90;;;;;;5116982;28;20083;-76
2022/05/05 02:41:23;;;;;;;14.75;6.28;;;6.50;99.90;;;;;;5116827;28;20435;-75
2022/05/05 02:43:49;;;;;;;13.57;6.43;;;6.50;99.90;;;;;;5116967;28;20187;-77
2022/05/05 02:46:14;;;;;;;11.40;6.00;;;6.50;99.90;;;;;;5116725;28;20075;-74
2022/05/05 02:48:40;;;;;;;11.85;5.80;;;6.40;99.90;;;;;;5116650;28;20055;-75
2022/05/05 02:51:05;;;;;;;13.57;6.32;;;6.40;99.90;;;;;;5116992;28;20046;-76
2022/05/05 02:56:16;;;;;;;10.57;6.53;;;6.30;99.90;;;;;;5116731;28;20134;-74
2022/05/05 02:58:42;;;;;;;14.18;7.43;;;6.20;99.90;;;;;;5116460;28;20044;-75
2022/05/05 03:01:08;;;;;;;16.30;6.78;;;6.20;99.90;;;;;;5116479;28;20035;-75
2022/05/05 03:03:37;;;;;;;18.15;7.45;;;6.10;99.90;;;;;;5116500;28;20083;-76
2022/05/05 03:06:02;;;;;;;14.98;7.28;;;6.10;99.90;;;;;;5116399;28;20131;-75
2022/05/05 03:08:28;;;;;;;17.63;6.93;;;6.10;99.90;;;;;;5116367;28;20087;-74
2022/05/05 03:10:53;;;;;;;12.52;7.50;;;6.10;99.90;;;;;;5116333;28;20079;-74
2022/05/05 03:13:19;;;;;;;10.80;6.47;;;6.10;99.90;;;;;;5116041;28;20047;-75
2022/05/05 03:15:44;;;;;;;14.00;6.75;;;6.00;99.90;;;;;;5116099;28;20052;-76
2022/05/05 03:18:10;;;;;;;15.13;6.50;;;6.10;99.90;;;;;;5116563;28;20043;-77
2022/05/05 03:20:36;;;;;;;14.07;7.25;;;6.00;99.90;;;;;;5116011;28;20043;-77
2022/05/05 03:23:02;;;;;;;12.98;6.60;;;6.00;99.90;;;;;;5115971;28;20043;-76
2022/05/05 03:25:28;;;;;;;10.00;6.63;;;6.00;99.90;;;;;;5115806;28;20039;-76
2022/05/05 03:27:53;;;;;;;13.27;6.43;;;5.90;99.90;;;;;;5115971;28;20055;-77
2022/05/05 03:30:19;;;;;;;15.32;7.22;;;5.80;99.90;;;;;;5115675;28;20045;-76
2022/05/05 03:32:44;;;;;;;16.73;7.32;;;5.70;99.90;;;;;;5115863;28;20066;-76
2022/05/05 03:35:10;;;;;;;13.13;7.03;;;5.70;99.90;;;;;;5115733;28;20047;-76
2022/05/05 03:37:36;;;;;;;14.60;7.32;;;5.70;99.90;;;;;;5115752;28;20372;-73
2022/05/05 03:40:02;;;;;;;12.13;7.22;;;5.70;99.90;;;;;;5114642;28;20065;-76
2022/05/05 03:42:28;;;;;;;9.33;6.60;;;5.70;99.90;;;;;;5115632;28;20035;-76
2022/05/05 03:44:54;;;;;;;16.25;7.32;;;5.70;99.90;;;;;;5115470;28;20628;-76
2022/05/05 03:47:19;;;;;;;13.82;7.80;;;5.60;99.90;;;;;;5115485;28;20040;-76
2022/05/05 03:49:45;;;;;;;20.10;7.68;;;5.60;99.90;;;;;;5115533;28;20039;-76
2022/05/05 03:52:11;;;;;;;12.70;7.55;;;5.50;99.90;;;;;;5115236;28;20043;-76
2022/05/05 03:54:37;;;;;;;17.27;7.80;;;5.50;99.90;;;;;;5115399;28;20448;-76
2022/05/05 03:57:03;;;;;;;12.95;7.57;;;5.50;99.90;;;;;;5115410;28;20310;-76
2022/05/05 03:59:28;;;;;;;15.02;7.50;;;5.50;99.90;;;;;;5115169;28;20035;-76
2022/05/05 04:01:54;;;;;;;11.73;7.15;;;5.50;99.90;;;;;;5115257;28;20132;-75
2022/05/05 04:04:20;;;;;;;13.75;7.72;;;5.50;99.90;;;;;;5115555;28;20505;-74
2022/05/05 04:06:45;;;;;;;12.70;8.07;;;5.50;99.90;;;;;;5115358;28;20044;-76
2022/05/05 04:09:11;;;;;;;15.38;8.10;;;5.60;99.90;;;;;;5115205;28;20044;-77
2022/05/05 04:11:37;;;;;;;14.75;8.30;;;5.60;99.90;;;;;;5115132;28;20044;-75
2022/05/05 04:14:03;;;;;;;14.13;7.40;;;5.60;99.90;;;;;;5114577;28;20062;-75
2022/05/05 04:16:32;;;;;;;14.93;7.68;;;5.70;99.90;;;;;;5114955;28;20281;-76
2022/05/05 04:18:58;;;;;;;18.85;8.38;;;5.80;99.90;;;;;;5114846;28;20055;-75
2022/05/05 04:21:25;;;;;;;16.03;8.43;;;5.80;99.90;;;;;;5114908;28;20093;-75
2022/05/05 04:23:51;;;;;;;15.77;8.30;;;5.90;99.90;;;;;;5115164;28;20402;-75
2022/05/05 04:26:17;;;;;;;15.07;7.82;;;5.90;99.90;;;;;;5114931;28;20434;-76
2022/05/05 04:28:46;;;;;;;15.80;7.18;;;6.10;99.90;;;;;;5114733;28;20062;-76
2022/05/05 04:31:14;;;;;;;11.90;7.75;;;6.00;99.90;;;;;;5114685;28;20118;-77
2022/05/05 04:33:39;;;;;;;17.33;7.93;;;6.10;99.90;;;;;;5114806;28;20510;-76
2022/05/05 04:36:06;;;;;;;15.25;7.40;;;6.10;99.90;;;;;;5114647;28;20094;-77
2022/05/05 04:38:32;;;;;;;14.98;8.30;;;6.20;99.90;;;;;;5114627;28;20047;-76
2022/05/05 04:40:57;;;;;;;18.67;8.35;;;6.30;99.90;;;;;;5114614;28;20388;-75
2022/05/05 04:43:23;;;;;;;15.52;8.48;;;6.30;99.90;;;;;;5114174;28;20100;-73
2022/05/05 04:45:48;;;;;;;15.88;8.55;;;6.40;99.90;;;;;;5114830;28;20471;-72
2022/05/05 04:48:14;;;;;;;17.10;8.55;;;6.50;99.90;;;;;;5114146;28;20059;-75
2022/05/05 04:50:39;;;;;;;15.65;8.65;;;6.60;99.90;;;;;;5113971;28;20043;-73
2022/05/05 04:53:05;;;;;;;18.00;9.25;;;6.70;99.90;;;;;;5114295;28;20044;-73
2022/05/05 04:55:31;;;;;;;13.20;8.15;;;6.80;99.90;;;;;;5114359;28;20467;-71
2022/05/05 04:57:56;;;;;;;13.85;8.73;;;6.80;99.90;;;;;;5114309;28;20082;-74
2022/05/05 05:00:25;;;;;;;18.48;8.98;;;6.90;99.90;;;;;;5114184;28;20046;-74
2022/05/05 05:02:50;;;;;;;15.98;8.55;;;7.00;99.90;;;;;;5114228;28;20055;-74
2022/05/05 05:05:16;;;;;;;14.18;8.73;;;7.10;99.90;;;;;;5114131;28;20039;-74
2022/05/05 05:07:42;;;;;;;16.65;8.18;;;7.20;99.90;;;;;;5114289;28;20484;-75
2022/05/05 05:10:08;;;;;;;16.08;8.52;;;7.30;99.90;;;;;;5114133;28;20046;-73
2022/05/05 05:12:34;;;;;;;17.20;8.43;;;7.40;99.90;;;;;;5113907;28;20043;-74
2022/05/05 05:15:00;;;;;;;15.98;8.77;;;7.50;99.90;;;;;;5114376;28;20120;-75
2022/05/05 05:17:25;;;;;;;14.50;7.82;;;7.60;99.90;;;;;;5114493;28;20040;-74
2022/05/05 05:19:51;;;;;;;14.35;9.07;;;7.60;99.90;;;;;;5114098;28;20090;-77
2022/05/05 05:22:17;;;;;;;17.17;8.93;;;7.70;99.90;;;;;;5114052;28;20035;-74
2022/05/05 05:24:42;;;;;;;16.75;8.65;;;7.80;99.90;;;;;;5114044;28;20383;-75
2022/05/05 05:27:08;;;;;;;19.15;9.80;;;7.90;99.90;;;;;;5113981;28;20081;-75
2022/05/05 05:29:34;;;;;;;17.45;8.07;;;8.00;99.90;;;;;;5114105;28;20103;-72
2022/05/05 05:32:00;;;;;;;19.13;10.73;;;8.10;99.90;;;;;;5113872;28;20039;-73
2022/05/05 05:34:25;;;;;;;19.38;10.38;;;8.20;99.90;;;;;;5114100;28;20479;-74
2022/05/05 05:36:51;;;;;;;26.10;12.60;;;8.30;99.90;;;;;;5113650;28;20036;-75
2022/05/05 05:39:18;;;;;;;40.15;16.75;;;8.40;99.90;;;;;;5113867;28;20418;-74
2022/05/05 05:41:44;;;;;;;42.00;15.80;;;8.50;99.90;;;;;;5113942;28;20171;-75
2022/05/05 05:44:10;;;;;;;27.47;11.47;;;8.60;99.90;;;;;;5113831;28;20364;-72
2022/05/05 05:46:35;;;;;;;18.55;8.75;;;8.80;99.90;;;;;;5114133;28;20356;-74
2022/05/05 05:49:01;;;;;;;16.02;8.65;;;8.90;99.90;;;;;;5113722;28;20503;-76
2022/05/05 05:51:26;;;;;;;29.70;11.15;;;9.10;99.90;;;;;;5113640;28;20043;-75
2022/05/05 05:53:52;;;;;;;18.88;8.63;;;9.20;99.90;;;;;;5113747;28;20043;-73
2022/05/05 05:56:18;;;;;;;17.67;8.52;;;9.30;99.90;;;;;;5113709;28;20123;-76
2022/05/05 05:58:43;;;;;;;18.15;7.30;;;9.50;99.90;;;;;;5113687;28;20040;-75
2022/05/05 06:01:09;;;;;;;16.95;7.93;;;9.60;99.90;;;;;;5113720;28;20047;-75
2022/05/05 06:03:53;;;;;;;16.42;8.30;;;9.70;99.90;;;;;;5116473;28;20126;-75
2022/05/05 06:06:20;;;;;;;17.02;8.07;;;9.90;99.90;;;;;;5117604;27;20035;-75
2022/05/05 06:08:46;;;;;;;12.35;7.57;;;10.10;99.90;;;;;;5117367;28;20043;-73
2022/05/05 06:11:12;;;;;;;14.70;7.97;;;10.30;99.90;;;;;;5117264;27;20040;-74
2022/05/05 06:13:38;;;;;;;13.27;7.60;;;10.40;99.90;;;;;;5117053;28;20051;-74
2022/05/05 06:16:06;;;;;;;13.15;7.68;;;10.50;99.90;;;;;;5117005;28;20043;-75
2022/05/05 06:18:32;;;;;;;18.20;8.15;;;10.60;99.90;;;;;;5117326;28;20044;-75
2022/05/05 06:20:58;;;;;;;17.58;8.30;;;10.70;99.90;;;;;;5117135;28;20040;-75
2022/05/05 06:23:23;;;;;;;15.23;7.35;;;10.80;99.90;;;;;;5117239;28;20051;-74
2022/05/05 06:25:49;;;;;;;16.38;8.52;;;10.90;99.90;;;;;;5117109;28;20043;-74
2022/05/05 06:28:14;;;;;;;20.90;8.38;;;11.00;99.90;;;;;;5117169;28;20075;-75
2022/05/05 06:30:40;;;;;;;12.73;7.70;;;11.10;99.90;;;;;;5116934;28;20050;-72
2022/05/05 06:33:06;;;;;;;11.85;7.47;;;11.20;99.90;;;;;;5116980;28;20074;-73
2022/05/05 06:35:31;;;;;;;15.07;7.85;;;11.30;99.90;;;;;;5116898;28;20074;-74
2022/05/05 06:37:57;;;;;;;12.65;7.47;;;11.40;99.90;;;;;;5117018;28;20039;-73
2022/05/05 06:40:23;;;;;;;12.15;7.38;;;11.50;99.90;;;;;;5115077;28;20130;-74
2022/05/05 06:42:48;;;;;;;19.88;7.45;;;11.60;99.90;;;;;;5114999;28;20051;-76
2022/05/05 06:45:14;;;;;;;15.63;7.28;;;11.70;99.90;;;;;;5116607;28;20047;-75
2022/05/05 06:47:40;;;;;;;14.60;7.40;;;11.90;99.90;;;;;;5116784;28;20047;-76
2022/05/05 06:50:07;;;;;;;11.83;7.17;;;12.10;99.90;;;;;;5116883;28;20076;-75
2022/05/05 06:52:33;;;;;;;10.50;6.47;;;12.30;99.90;;;;;;5116588;28;20277;-76
2022/05/05 06:54:58;;;;;;;10.75;7.57;;;12.40;99.90;;;;;;5116483;28;20050;-76
2022/05/05 06:57:24;;;;;;;18.35;6.70;;;12.50;99.90;;;;;;5117028;28;20040;-75
2022/05/05 06:59:49;;;;;;;16.25;6.35;;;12.70;99.90;;;;;;5116511;28;20093;-75
2022/05/05 07:02:15;;;;;;;15.70;6.55;;;12.70;99.90;;;;;;5116810;28;20567;-76
2022/05/05 07:07:24;;;;;;;11.48;5.72;;;13.00;99.90;;;;;;5116377;28;20138;-74
2022/05/05 07:12:34;;;;;;;12.35;5.68;;;13.30;99.90;;;;;;5115968;28;20048;-74
2022/05/05 07:15:00;;;;;;;13.37;5.40;;;13.40;99.90;;;;;;5116007;28;20044;-74
2022/05/05 07:17:26;;;;;;;16.30;5.72;;;13.60;99.90;;;;;;5116280;28;20077;-74
2022/05/05 07:19:52;;;;;;;9.40;4.70;;;13.70;99.90;;;;;;5116051;28;20040;-74
2022/05/05 07:22:18;;;;;;;12.48;4.55;;;13.90;99.90;;;;;;5115961;28;20047;-75
2022/05/05 07:24:44;;;;;;;9.93;4.75;;;14.00;99.90;;;;;;5116467;28;20043;-75
2022/05/05 07:27:10;;;;;;;11.40;4.70;;;14.20;99.90;;;;;;5116225;28;20089;-76
2022/05/05 07:29:37;;;;;;;13.73;4.20;;;14.20;99.90;;;;;;5115953;28;20044;-74
2022/05/05 07:32:04;;;;;;;7.55;4.78;;;14.20;99.90;;;;;;5114587;28;20668;-73
2022/05/05 07:34:30;;;;;;;11.32;3.85;;;14.40;99.90;;;;;;5115632;28;20220;-78
2022/05/05 07:36:56;;;;;;;12.30;4.20;;;14.60;99.90;;;;;;5114572;28;20039;-78
2022/05/05 07:39:22;;;;;;;7.53;3.50;;;14.80;99.90;;;;;;5115731;28;20416;-76
2022/05/05 07:41:48;;;;;;;12.68;3.47;;;15.00;99.90;;;;;;5114893;28;20047;-76
2022/05/05 07:44:15;;;;;;;10.30;3.20;;;15.20;99.90;;;;;;5115636;28;20444;-75
2022/05/05 07:46:41;;;;;;;7.68;3.20;;;15.20;99.90;;;;;;5115180;28;20051;-73
2022/05/05 07:49:07;;;;;;;9.10;2.77;;;15.30;99.20;;;;;;5115559;28;20372;-78
2022/05/05 07:51:34;;;;;;;10.60;3.47;;;15.40;98.60;;;;;;5115384;28;20040;-79
2022/05/05 07:56:44;;;;;;;7.88;3.35;;;15.10;98.20;;;;;;5115490;28;20271;-77
2022/05/05 07:59:10;;;;;;;9.00;3.93;;;15.20;99.90;;;;;;5115340;28;20047;-75
2022/05/05 08:01:36;;;;;;;9.48;3.75;;;15.30;99.90;;;;;;5115324;28;20040;-75
2022/05/05 08:04:02;;;;;;;11.40;3.58;;;15.40;99.90;;;;;;5115201;28;20069;-75
2022/05/05 08:06:27;;;;;;;8.90;3.30;;;15.50;99.90;;;;;;5115142;28;20052;-76
2022/05/05 08:08:53;;;;;;;9.38;3.70;;;15.60;99.90;;;;;;5115140;28;20043;-76
2022/05/05 08:11:18;;;;;;;7.70;3.92;;;15.70;99.10;;;;;;5113754;28;20082;-74
2022/05/05 08:13:44;;;;;;;8.60;4.05;;;15.70;99.90;;;;;;5115322;28;20043;-74
2022/05/05 08:16:11;;;;;;;7.38;3.20;;;15.90;99.90;;;;;;5114927;28;20052;-73
2022/05/05 08:18:38;;;;;;;7.30;2.92;;;16.00;99.40;;;;;;5114794;28;20083;-72
2022/05/05 08:21:05;;;;;;;4.93;3.00;;;16.00;99.70;;;;;;5114830;27;20040;-74
2022/05/05 08:23:31;;;;;;;6.03;3.35;;;16.00;98.20;;;;;;5114877;28;20055;-76
2022/05/05 08:28:41;;;;;;;11.43;4.03;;;16.10;98.90;;;;;;5114913;28;20162;-76
2022/05/05 08:31:10;;;;;;;7.15;3.38;;;16.10;97.50;;;;;;5114657;28;20040;-75
2022/05/05 08:33:38;;;;;;;7.22;3.53;;;16.20;98.50;;;;;;5114739;28;20086;-75
2022/05/05 08:36:04;;;;;;;7.07;3.60;;;16.30;97.70;;;;;;5114587;28;20395;-75
2022/05/05 08:38:31;;;;;;;8.35;3.42;;;16.40;97.80;;;;;;5114561;28;20050;-77
2022/05/05 08:40:57;;;;;;;9.15;4.00;;;16.50;97.50;;;;;;5114485;28;20081;-76
2022/05/05 08:43:22;;;;;;;7.85;3.30;;;16.50;98.10;;;;;;5114579;28;20092;-76
2022/05/05 08:45:50;;;;;;;6.63;3.33;;;16.60;97.40;;;;;;5114402;28;20128;-76
2022/05/05 08:48:17;;;;;;;5.97;3.30;;;16.60;97.20;;;;;;5114472;28;20098;-77
2022/05/05 08:50:46;;;;;;;9.45;3.88;;;16.60;96.30;;;;;;5114590;28;20032;-75
2022/05/05 08:53:16;;;;;;;5.90;3.25;;;16.60;96.60;;;;;;5114360;28;20040;-77
2022/05/05 08:55:44;;;;;;;9.27;3.80;;;16.60;97.10;;;;;;5114321;28;20046;-74
2022/05/05 08:58:09;;;;;;;5.80;3.63;;;16.60;97.20;;;;;;5114508;28;20044;-75
2022/05/05 09:00:36;;;;;;;9.57;3.97;;;16.70;97.30;;;;;;5113834;28;20043;-75
2022/05/05 09:03:04;;;;;;;10.40;3.72;;;16.70;96.50;;;;;;5113994;28;20540;-74
2022/05/05 09:05:42;;;;;;;16.10;4.13;;;16.70;97.10;;;;;;5114220;28;20399;-76
2022/05/05 09:08:26;;;;;;;10.27;3.67;;;16.70;97.00;;;;;;5095710;28;20112;-79
2022/05/05 09:10:54;;;;;;;6.38;3.97;;;16.90;96.50;;;;;;5114208;28;20130;-79
2022/05/05 09:13:25;;;;;;;10.25;4.28;;;16.90;97.20;;;;;;5113832;28;20087;-78
2022/05/05 09:15:51;;;;;;;8.82;4.32;;;16.90;97.20;;;;;;5114280;28;20390;-76
2022/05/05 09:18:32;;;;;;;8.38;4.00;;;17.00;97.10;;;;;;5114015;28;20142;-76
2022/05/05 09:21:03;;;;;;;6.90;4.53;;;17.00;96.50;;;;;;5114072;28;20071;-77
2022/05/05 09:26:31;;;;;;;11.52;4.93;;;17.00;96.50;;;;;;5114433;28;20055;-77
2022/05/05 09:28:57;;;;;;;7.17;3.47;;;17.10;96.90;;;;;;5114185;28;20047;-78
2022/05/05 09:31:23;;;;;;;7.03;3.70;;;17.30;96.90;;;;;;5113937;28;20047;-77
2022/05/05 09:33:49;;;;;;;7.60;3.73;;;17.30;96.20;;;;;;5113912;28;20043;-77
2022/05/05 09:36:25;;;;;;;8.80;3.95;;;17.40;96.00;;;;;;5113975;28;20052;-75
2022/05/05 09:38:58;;;;;;;7.53;3.88;;;17.40;95.80;;;;;;5117560;28;20074;-75
2022/05/05 09:41:28;;;;;;;7.30;4.10;;;17.50;96.30;;;;;;5118067;28;20052;-78
2022/05/05 09:44:16;;;;;;;8.60;4.43;;;17.50;95.00;;;;;;5117015;28;20131;-77
2022/05/05 09:47:16;;;;;;;7.90;4.07;;;17.50;95.80;;;;;;5116911;28;20493;-78
2022/05/05 09:50:08;;;;;;;7.43;4.15;;;17.70;96.00;;;;;;5117832;28;20058;-74
2022/05/05 09:58:12;;;;;;;6.05;4.15;;;17.70;95.30;;;;;;5117748;28;20123;-75
2022/05/05 10:00:45;;;;;;;9.45;4.30;;;17.70;95.50;;;;;;5117621;28;20072;-74
2022/05/05 10:06:16;;;;;;;7.75;3.75;;;17.80;95.00;;;;;;5117929;28;20083;-76
2022/05/05 10:08:45;;;;;;;6.75;3.25;;;17.90;95.00;;;;;;5117607;28;20047;-76
2022/05/05 10:11:14;;;;;;;8.15;3.42;;;18.00;95.10;;;;;;5117294;28;20406;-77
2022/05/05 10:13:40;;;;;;;8.38;3.17;;;18.20;94.70;;;;;;5117588;28;20055;-77
2022/05/05 10:16:06;;;;;;;6.90;3.50;;;18.40;95.10;;;;;;5117337;28;20044;-75
2022/05/05 10:18:37;;;;;;;7.07;3.90;;;18.50;94.20;;;;;;5117240;28;20048;-75
2022/05/05 10:21:04;;;;;;;7.07;3.85;;;18.40;94.10;;;;;;5117617;27;20043;-74
2022/05/05 10:23:44;;;;;;;6.65;3.78;;;18.60;94.80;;;;;;5117507;28;20054;-74
2022/05/05 10:26:11;;;;;;;7.68;3.42;;;18.80;93.20;;;;;;5116966;28;20562;-74
2022/05/05 10:28:41;;;;;;;8.85;3.90;;;18.90;94.30;;;;;;5117251;28;20094;-73
2022/05/05 10:31:11;;;;;;;4.85;3.40;;;18.90;92.90;;;;;;5115913;28;20051;-74
2022/05/05 10:34:01;;;;;;;6.47;3.38;;;19.10;93.50;;;;;;5117109;28;20039;-76
2022/05/05 10:36:30;;;;;;;6.97;3.25;;;19.20;93.50;;;;;;5117043;28;20036;-76
2022/05/05 10:38:56;;;;;;;6.43;4.20;;;19.30;93.70;;;;;;5116858;28;20138;-75
2022/05/05 10:41:34;;;;;;;6.40;3.65;;;19.40;93.40;;;;;;5117014;28;20036;-74
2022/05/05 10:44:20;;;;;;;7.35;4.15;;;19.30;92.40;;;;;;5117343;28;20054;-75
2022/05/05 10:46:54;;;;;;;5.15;3.60;;;19.00;91.70;;;;;;5116953;28;20048;-74
2022/05/05 10:49:32;;;;;;;7.13;4.18;;;18.90;92.10;;;;;;5115965;28;20230;-75
2022/05/05 10:52:12;;;;;;;9.05;4.05;;;18.90;92.60;;;;;;5116602;28;20039;-75
2022/05/05 10:54:48;;;;;;;6.68;3.53;;;19.10;92.10;;;;;;5116844;28;20040;-74
2022/05/05 10:57:25;;;;;;;9.75;4.20;;;19.20;92.90;;;;;;5116400;28;20521;-75
2022/05/05 11:00:14;;;;;;;8.85;3.92;;;19.40;92.70;;;;;;5116061;28;20055;-75
2022/05/05 11:03:01;;;;;;;5.38;3.85;;;19.60;92.70;;;;;;5116416;28;20048;-75
2022/05/05 11:05:35;;;;;;;7.55;3.97;;;19.70;92.40;;;;;;5116296;28;20126;-77
2022/05/05 11:08:09;;;;;;;8.77;4.22;;;19.70;92.80;;;;;;5116145;28;20051;-74
2022/05/05 11:10:45;;;;;;;7.60;4.45;;;19.80;91.90;;;;;;5116056;28;20050;-76
2022/05/05 11:13:35;;;;;;;8.43;4.20;;;19.90;92.80;;;;;;5115065;28;20056;-77
2022/05/05 11:22:24;;;;;;;4.82;3.83;;;19.50;92.50;;;;;;5116094;28;20039;-73
2022/05/05 11:24:51;;;;;;;6.00;3.58;;;19.60;92.80;;;;;;5115903;28;20040;-77
2022/05/05 11:27:22;;;;;;;7.07;3.40;;;19.60;92.00;;;;;;5114994;28;20052;-77
2022/05/05 11:29:53;;;;;;;7.47;3.63;;;19.60;91.50;;;;;;5115485;28;20043;-77
2022/05/05 11:32:20;;;;;;;8.02;4.25;;;19.70;91.60;;;;;;5115842;28;20083;-78
2022/05/05 11:34:46;;;;;;;;;;;19.60;91.00;;;;;;5116463;28;20036;-78
2022/05/05 11:37:12;;;;;;;6.88;3.35;;;19.50;90.70;;;;;;5115779;28;19972;-77
2022/05/05 11:39:39;;;;;;;6.53;3.83;;;19.60;91.30;;;;;;5115810;28;20047;-78
2022/05/05 11:42:09;;;;;;;7.68;3.47;;;19.80;91.70;;;;;;5115680;28;20112;-78
2022/05/05 11:44:40;;;;;;;5.53;3.35;;;19.90;91.00;;;;;;5115054;28;20054;-78
2022/05/05 11:47:13;;;;;;;5.97;3.30;;;20.00;90.80;;;;;;5115575;28;20092;-77
2022/05/05 11:49:44;;;;;;;4.75;3.17;;;20.20;90.70;;;;;;5115132;28;20086;-77
2022/05/05 11:52:14;;;;;;;6.53;3.60;;;20.20;90.30;;;;;;5115308;28;20040;-76
2022/05/05 11:54:39;;;;;;;6.30;3.80;;;19.80;89.80;;;;;;5115364;28;20487;-77
2022/05/05 11:57:05;;;;;;;5.43;3.50;;;19.90;90.90;;;;;;5115411;28;20072;-77
2022/05/05 12:02:17;;;;;;;6.60;3.60;;;20.20;90.90;;;;;;5115064;28;20391;-76
2022/05/05 12:04:54;;;;;;;12.20;3.88;;;20.10;90.00;;;;;;5115244;28;20043;-76
2022/05/05 12:07:23;;;;;;;8.07;3.70;;;20.30;90.70;;;;;;5115163;28;20047;-76
2022/05/05 12:09:58;;;;;;;5.63;3.10;;;20.30;90.30;;;;;;5115125;28;20090;-77
2022/05/05 12:12:25;;;;;;;7.90;3.00;;;20.40;90.20;;;;;;5114828;28;20480;-77
2022/05/05 12:14:57;;;;;;;6.07;2.90;;;20.60;90.00;;;;;;5115093;28;20134;-77
2022/05/05 12:17:26;;;;;;;7.38;3.25;;;20.70;90.30;;;;;;5114735;28;20048;-77
2022/05/05 12:19:55;;;;;;;5.70;2.97;;;20.90;90.10;;;;;;5114831;28;20063;-77
2022/05/05 12:22:37;;;;;;;8.52;3.65;;;21.00;90.70;;;;;;5114956;28;20048;-77
2022/05/05 12:25:14;;;;;;;6.78;3.38;;;21.00;89.80;;;;;;5114690;28;20052;-77
2022/05/05 12:27:44;;;;;;;9.80;3.27;;;21.20;90.50;;;;;;5115393;28;20090;-77
2022/05/05 12:30:12;;;;;;;6.25;3.65;;;21.30;90.70;;;;;;5114644;28;20047;-78
2022/05/05 12:32:52;;;;;;;5.53;3.28;;;21.40;90.10;;;;;;5114785;28;20035;-78
2022/05/05 12:35:33;;;;;;;5.28;3.33;;;21.40;88.30;;;;;;5114883;28;20452;-77
2022/05/05 12:38:00;;;;;;;6.03;3.35;;;21.30;88.80;;;;;;5113146;28;20046;-77
2022/05/05 12:40:27;;;;;;;6.70;3.60;;;21.30;89.60;;;;;;5114544;28;20376;-77
2022/05/05 12:43:00;;;;;;;4.80;3.17;;;21.30;88.30;;;;;;5114563;28;20069;-78
2022/05/05 12:45:29;;;;;;;7.28;3.70;;;21.20;85.40;;;;;;5114448;28;20047;-78
2022/05/05 12:47:57;;;;;;;10.48;3.13;;;21.10;87.30;;;;;;5114457;28;20050;-78
2022/05/05 12:50:34;;;;;;;8.10;3.27;;;21.10;88.20;;;;;;5114396;28;20155;-78
2022/05/05 13:01:34;;;;;;;15.98;3.00;;;20.70;87.80;;;;;;5114208;28;20047;-77
2022/05/05 13:04:04;;;;;;;6.00;2.90;;;20.70;89.40;;;;;;5114609;28;20205;-77
2022/05/05 13:06:30;;;;;;;7.40;3.67;;;20.70;89.80;;;;;;5114489;28;20090;-78
2022/05/05 13:08:55;;;;;;;6.70;3.93;;;20.50;87.20;;;;;;5114265;28;20084;-77
2022/05/05 13:11:21;;;;;;;6.37;3.30;;;20.50;89.00;;;;;;5113650;28;20048;-77
2022/05/05 13:13:48;;;;;;;9.27;3.97;;;20.40;88.80;;;;;;5114133;28;20398;-77
2022/05/05 13:16:14;;;;;;;6.18;3.35;;;20.30;89.50;;;;;;5112879;28;20426;-77
2022/05/05 13:18:40;;;;;;;4.63;3.10;;;20.40;90.10;;;;;;5113985;28;20056;-77
2022/05/05 13:21:06;;;;;;;6.13;3.50;;;20.30;90.50;;;;;;5114227;28;20088;-78
2022/05/05 13:23:31;;;;;;;8.00;3.43;;;20.10;88.30;;;;;;5114121;28;20050;-78
2022/05/05 13:25:57;;;;;;;7.50;3.17;;;20.10;90.10;;;;;;5113754;28;20126;-78
2022/05/05 13:28:23;;;;;;;7.38;3.95;;;20.00;89.90;;;;;;5113982;28;20048;-76
2022/05/05 13:30:49;;;;;;;5.37;3.07;;;19.90;90.30;;;;;;5114173;28;20108;-76
2022/05/05 13:33:14;;;;;;;5.50;3.20;;;19.90;90.60;;;;;;5114028;28;20475;-78
2022/05/05 13:35:40;;;;;;;8.43;3.60;;;20.00;90.60;;;;;;5113992;28;20116;-77
2022/05/05 13:38:06;;;;;;;5.33;2.93;;;19.90;90.70;;;;;;5113911;28;20388;-76
2022/05/05 13:40:31;;;;;;;6.10;3.13;;;19.80;90.60;;;;;;5113878;28;20499;-79
2022/05/05 13:42:57;;;;;;;11.73;3.27;;;19.80;90.60;;;;;;5113981;28;20164;-78
2022/05/05 13:45:23;;;;;;;6.27;2.77;;;19.70;90.80;;;;;;5113760;28;20059;-77